createdAt,value
2017-12-24T00:01:46.367Z,101379.20
2017-12-24T00:04:18.900Z,101370.27
2017-12-24T00:06:51.704Z,101368.55
2017-12-24T00:09:24.568Z,101367.67
2017-12-24T00:11:58.420Z,101346.43
2017-12-24T00:14:31.949Z,101348.53
2017-12-24T00:17:04.723Z,101354.14
2017-12-24T00:19:37.468Z,101349.41
2017-12-24T00:22:10.871Z,101355.42
2017-12-24T00:24:43.538Z,101340.88
2017-12-24T00:27:16.088Z,101336.22
2017-12-24T00:29:48.648Z,101344.66
2017-12-24T00:32:21.385Z,101349.36
2017-12-24T00:34:53.891Z,101350.60
2017-12-24T00:37:26.612Z,101336.59
2017-12-24T00:39:59.183Z,101327.81
2017-12-24T00:42:31.727Z,101343.45
2017-12-24T00:45:04.225Z,101339.14
2017-12-24T00:47:36.735Z,101335.89
2017-12-24T00:50:09.227Z,101344.72
2017-12-24T00:52:41.739Z,101347.98
2017-12-24T00:55:14.299Z,101343.66
2017-12-24T00:57:46.822Z,101345.86
2017-12-24T01:00:19.349Z,101341.59
2017-12-24T01:02:51.883Z,101354.31
2017-12-24T01:05:24.372Z,101339.91
2017-12-24T01:07:57.982Z,101335.20
2017-12-24T01:10:30.584Z,101354.31
2017-12-24T01:13:03.296Z,101345.89
2017-12-24T01:15:36.353Z,101346.31
2017-12-24T01:18:09.368Z,101329.74
2017-12-24T01:20:42.564Z,101343.36
2017-12-24T01:23:15.714Z,101342.94
2017-12-24T01:25:52.882Z,101357.50
2017-12-24T01:28:26.095Z,101362.48
2017-12-24T01:31:00.338Z,101364.68
2017-12-24T01:33:33.454Z,101379.94
2017-12-24T01:36:06.642Z,101387.98
2017-12-24T01:38:49.119Z,101383.29
2017-12-24T01:41:22.180Z,101383.73
2017-12-24T01:43:55.382Z,101385.48
2017-12-24T01:46:28.565Z,101382.52
2017-12-24T01:49:02.198Z,101374.47
2017-12-24T01:51:35.527Z,101368.13
2017-12-24T01:54:09.433Z,101371.00
2017-12-24T01:56:44.430Z,101368.87
2017-12-24T01:59:17.554Z,101366.69
2017-12-24T02:01:50.574Z,101372.35
2017-12-24T02:04:26.273Z,101376.55
2017-12-24T02:06:59.687Z,101370.23
2017-12-24T02:09:32.743Z,101367.23
2017-12-24T02:12:06.029Z,101345.78
2017-12-24T02:14:39.053Z,101335.23
2017-12-24T02:17:12.168Z,101346.34
2017-12-24T02:19:45.715Z,101351.84
2017-12-24T02:22:18.939Z,101359.06
2017-12-24T02:24:52.004Z,101357.06
2017-12-24T02:27:25.618Z,101344.58
2017-12-24T02:29:58.585Z,101347.02
2017-12-24T02:32:31.729Z,101354.34
2017-12-24T02:35:04.747Z,101351.24
2017-12-24T02:37:37.964Z,101356.73
2017-12-24T02:40:11.615Z,101366.58
2017-12-24T02:42:44.769Z,101375.05
2017-12-24T02:45:17.933Z,101377.70
2017-12-24T02:47:51.075Z,101377.73
2017-12-24T02:50:24.199Z,101394.59
2017-12-24T02:53:00.392Z,101387.66
2017-12-24T02:55:34.967Z,101390.27
2017-12-24T02:58:10.372Z,101378.80
2017-12-24T03:00:44.162Z,101382.24
2017-12-24T03:03:17.165Z,101389.61
2017-12-24T03:05:50.360Z,101381.14
2017-12-24T03:08:23.391Z,101382.80
2017-12-24T03:10:57.952Z,101380.62
2017-12-24T03:13:32.080Z,101377.63
2017-12-24T03:16:06.035Z,101370.80
2017-12-24T03:18:39.312Z,101365.21
2017-12-24T03:21:12.272Z,101358.56
2017-12-24T03:23:45.432Z,101369.94
2017-12-24T03:26:18.645Z,101364.30
2017-12-24T03:28:51.900Z,101369.73
2017-12-24T03:31:29.099Z,101370.48
2017-12-24T03:34:05.943Z,101355.65
2017-12-24T03:36:39.070Z,101359.86
2017-12-24T03:39:12.871Z,101336.92
2017-12-24T03:41:45.917Z,101333.92
2017-12-24T03:44:19.070Z,101341.14
2017-12-24T03:46:52.162Z,101339.36
2017-12-24T03:49:25.445Z,101335.96
2017-12-24T03:51:59.386Z,101337.19
2017-12-24T03:54:32.618Z,101333.81
2017-12-24T03:57:06.220Z,101343.66
2017-12-24T03:59:39.243Z,101335.92
2017-12-24T04:02:12.379Z,101329.97
2017-12-24T04:04:45.277Z,101340.30
2017-12-24T04:07:18.255Z,101345.05
2017-12-24T04:09:50.998Z,101343.30
2017-12-24T04:12:23.700Z,101345.91
2017-12-24T04:14:56.771Z,101347.17
2017-12-24T04:17:29.581Z,101349.93
2017-12-24T04:20:02.252Z,101340.04
2017-12-24T04:22:34.810Z,101347.27
2017-12-24T04:25:07.315Z,101333.69
2017-12-24T04:27:39.846Z,101332.37
2017-12-24T04:30:12.342Z,101326.41
2017-12-24T04:32:44.875Z,101316.62
2017-12-24T04:35:17.365Z,101304.28
2017-12-24T04:37:49.970Z,101306.42
2017-12-24T04:40:22.494Z,101299.56
2017-12-24T04:42:55.835Z,101294.52
2017-12-24T04:45:28.345Z,101283.88
2017-12-24T04:48:00.893Z,101289.85
2017-12-24T04:50:33.399Z,101296.62
2017-12-24T04:53:05.926Z,101289.44
2017-12-24T04:55:38.417Z,101296.27
2017-12-24T04:58:10.949Z,101294.48
2017-12-24T05:00:43.474Z,101300.04
2017-12-24T05:03:15.994Z,101292.72
2017-12-24T05:05:48.497Z,101295.25
2017-12-24T05:08:21.031Z,101297.05
2017-12-24T05:10:53.596Z,101295.34
2017-12-24T05:13:26.688Z,101289.83
2017-12-24T05:15:59.320Z,101286.50
2017-12-24T05:18:31.870Z,101283.83
2017-12-24T05:21:04.372Z,101278.33
2017-12-24T05:23:36.952Z,101278.77
2017-12-24T05:26:09.460Z,101280.50
2017-12-24T05:28:41.989Z,101278.31
2017-12-24T05:31:14.491Z,101266.52
2017-12-24T05:33:46.999Z,101265.22
2017-12-24T05:36:19.504Z,101264.33
2017-12-24T05:38:52.115Z,101264.39
2017-12-24T05:41:24.629Z,101264.30
2017-12-24T05:43:57.896Z,101252.34
2017-12-24T05:46:30.612Z,101252.41
2017-12-24T05:49:03.271Z,101255.31
2017-12-24T05:51:35.829Z,101256.61
2017-12-24T05:54:08.363Z,101268.97
2017-12-24T05:56:40.868Z,101267.71
2017-12-24T05:59:13.385Z,101269.84
2017-12-24T06:01:45.873Z,101269.39
2017-12-24T06:04:18.432Z,101265.18
2017-12-24T06:06:51.009Z,101272.89
2017-12-24T06:09:23.561Z,101254.80
2017-12-24T06:11:57.028Z,101252.55
2017-12-24T06:14:30.359Z,101259.75
2017-12-24T06:17:03.378Z,101254.22
2017-12-24T06:19:36.538Z,101247.14
2017-12-24T06:22:10.656Z,101250.90
2017-12-24T06:24:44.722Z,101252.31
2017-12-24T06:27:18.419Z,101251.29
2017-12-24T06:29:52.032Z,101261.48
2017-12-24T06:32:24.989Z,101266.19
2017-12-24T06:35:07.673Z,101274.30
2017-12-24T06:37:43.323Z,101260.27
2017-12-24T06:40:17.154Z,101258.00
2017-12-24T06:42:51.069Z,101245.69
2017-12-24T06:45:24.229Z,101247.86
2017-12-24T06:47:58.102Z,101236.34
2017-12-24T06:50:31.227Z,101242.54
2017-12-24T06:53:04.331Z,101236.36
2017-12-24T06:55:37.254Z,101231.66
2017-12-24T06:58:10.028Z,101226.10
2017-12-24T07:00:42.542Z,101219.64
2017-12-24T07:03:15.047Z,101215.86
2017-12-24T07:05:47.551Z,101210.97
2017-12-24T07:08:20.114Z,101205.68
2017-12-24T07:10:52.629Z,101213.08
2017-12-24T07:13:25.471Z,101215.03
2017-12-24T07:15:58.340Z,101206.19
2017-12-24T07:18:31.145Z,101212.58
2017-12-24T07:21:03.669Z,101211.22
2017-12-24T07:23:36.203Z,101213.84
2017-12-24T07:26:08.743Z,101207.86
2017-12-24T07:28:41.261Z,101208.66
2017-12-24T07:31:13.762Z,101203.57
2017-12-24T07:33:46.295Z,101202.71
2017-12-24T07:36:18.784Z,101209.55
2017-12-24T07:38:51.290Z,101197.30
2017-12-24T07:41:23.891Z,101210.06
2017-12-24T07:43:56.506Z,101221.88
2017-12-24T07:46:29.606Z,101232.16
2017-12-24T07:49:02.879Z,101243.05
2017-12-24T07:51:35.796Z,101230.85
2017-12-24T07:54:08.813Z,101235.36
2017-12-24T07:56:41.770Z,101233.30
2017-12-24T07:59:20.692Z,101234.53
2017-12-24T08:01:53.688Z,101229.98
2017-12-24T08:04:27.562Z,101238.42
2017-12-24T08:07:00.261Z,101249.50
2017-12-24T08:09:33.029Z,101239.70
2017-12-24T08:12:05.791Z,101249.44
2017-12-24T08:14:38.542Z,101246.92
2017-12-24T08:17:11.348Z,101248.62
2017-12-24T08:19:44.048Z,101241.02
2017-12-24T08:22:16.700Z,101240.20
2017-12-24T08:24:49.451Z,101244.48
2017-12-24T08:27:21.981Z,101248.28
2017-12-24T08:29:54.531Z,101235.50
2017-12-24T08:32:27.258Z,101239.76
2017-12-24T08:35:00.002Z,101244.89
2017-12-24T08:37:32.508Z,101243.09
2017-12-24T08:40:05.032Z,101244.39
2017-12-24T08:42:37.559Z,101234.26
2017-12-24T08:45:10.082Z,101237.12
2017-12-24T08:47:42.569Z,101242.70
2017-12-24T08:50:15.128Z,101217.55
2017-12-24T08:52:47.636Z,101230.00
2017-12-24T08:55:20.146Z,101225.73
2017-12-24T08:57:52.667Z,101240.21
2017-12-24T09:00:26.864Z,101236.26
2017-12-24T09:02:59.537Z,101225.77
2017-12-24T09:05:32.094Z,101209.98
2017-12-24T09:08:04.623Z,101200.11
2017-12-24T09:10:37.194Z,101205.65
2017-12-24T09:13:09.696Z,101203.88
2017-12-24T09:15:42.258Z,101201.80
2017-12-24T09:18:14.763Z,101214.95
2017-12-24T09:20:47.276Z,101210.33
2017-12-24T09:23:19.770Z,101223.91
2017-12-24T09:25:52.337Z,101216.72
2017-12-24T09:28:24.850Z,101217.52
2017-12-24T09:30:58.416Z,101218.36
2017-12-24T09:33:31.025Z,101223.02
2017-12-24T09:36:03.550Z,101212.45
2017-12-24T09:38:36.076Z,101223.48
2017-12-24T09:41:08.623Z,101225.95
2017-12-24T09:43:41.127Z,101228.10
2017-12-24T09:46:13.647Z,101226.42
2017-12-24T09:48:46.136Z,101225.53
2017-12-24T09:51:18.645Z,101217.94
2017-12-24T09:53:51.182Z,101209.92
2017-12-24T09:56:23.777Z,101211.14
2017-12-24T09:58:56.768Z,101205.25
2017-12-24T10:01:29.321Z,101207.20
2017-12-24T10:04:01.820Z,101204.29
2017-12-24T10:06:34.385Z,101194.39
2017-12-24T10:09:06.891Z,101192.46
2017-12-24T10:11:39.397Z,101192.06
2017-12-24T10:14:11.952Z,101182.58
2017-12-24T10:16:44.472Z,101193.61
2017-12-24T10:19:17.007Z,101199.89
2017-12-24T10:21:49.649Z,101182.06
2017-12-24T10:24:22.212Z,101189.35
2017-12-24T10:26:54.698Z,101181.27
2017-12-24T10:29:28.365Z,101188.11
2017-12-24T10:32:02.003Z,101180.42
2017-12-24T10:34:34.526Z,101171.00
2017-12-24T10:37:07.016Z,101175.78
2017-12-24T10:39:39.523Z,101179.16
2017-12-24T10:42:12.016Z,101168.11
2017-12-24T10:44:44.539Z,101178.70
2017-12-24T10:47:17.035Z,101159.61
2017-12-24T10:49:49.554Z,101161.34
2017-12-24T10:52:22.142Z,101147.66
2017-12-24T10:54:54.681Z,101156.05
2017-12-24T10:57:27.766Z,101162.94
2017-12-24T11:00:00.291Z,101154.92
2017-12-24T11:02:32.803Z,101142.77
2017-12-24T11:05:05.309Z,101144.69
2017-12-24T11:07:37.790Z,101137.47
2017-12-24T11:10:10.308Z,101132.72
2017-12-24T11:12:42.809Z,101124.59
2017-12-24T11:15:15.316Z,101122.02
2017-12-24T11:17:47.821Z,101125.01
2017-12-24T11:20:20.339Z,101124.07
2017-12-24T11:22:52.866Z,101119.85
2017-12-24T11:25:25.691Z,101112.58
2017-12-24T11:27:58.213Z,101118.80
2017-12-24T11:30:30.746Z,101101.37
2017-12-24T11:33:03.324Z,101101.34
2017-12-24T11:35:35.845Z,101096.26
2017-12-24T11:38:08.351Z,101096.05
2017-12-24T11:40:40.863Z,101093.08
2017-12-24T11:43:13.411Z,101096.52
2017-12-24T11:45:45.921Z,101095.23
2017-12-24T11:48:18.432Z,101082.06
2017-12-24T11:50:50.987Z,101071.61
2017-12-24T11:53:25.709Z,101066.55
2017-12-24T11:55:58.322Z,101073.06
2017-12-24T11:58:30.784Z,101086.75
2017-12-24T12:01:03.332Z,101088.81
2017-12-24T12:03:35.846Z,101061.70
2017-12-24T12:06:08.362Z,101062.23
2017-12-24T12:08:40.856Z,101065.20
2017-12-24T12:11:13.390Z,101083.72
2017-12-24T12:13:45.880Z,101070.58
2017-12-24T12:16:18.473Z,101070.92
2017-12-24T12:18:51.007Z,101063.99
2017-12-24T12:21:23.535Z,101055.64
2017-12-24T12:23:57.128Z,101064.11
2017-12-24T12:26:29.650Z,101054.34
2017-12-24T12:29:02.152Z,101039.32
2017-12-24T12:31:34.670Z,101033.12
2017-12-24T12:34:07.155Z,101031.16
2017-12-24T12:36:39.719Z,101032.28
2017-12-24T12:39:12.221Z,101022.02
2017-12-24T12:41:44.741Z,101034.17
2017-12-24T12:44:17.246Z,101017.19
2017-12-24T12:46:49.763Z,101021.16
2017-12-24T12:49:22.284Z,101018.02
2017-12-24T12:51:54.879Z,101020.27
2017-12-24T12:54:28.922Z,101011.13
2017-12-24T12:57:01.465Z,101010.20
2017-12-24T12:59:33.964Z,101015.37
2017-12-24T13:02:06.484Z,101007.75
2017-12-24T13:04:38.998Z,101015.34
2017-12-24T13:07:11.512Z,101007.13
2017-12-24T13:09:44.069Z,100987.93
2017-12-24T13:12:16.588Z,101010.94
2017-12-24T13:14:49.090Z,101007.19
2017-12-24T13:17:21.611Z,101008.66
2017-12-24T13:19:54.099Z,100995.72
2017-12-24T13:22:26.676Z,101002.28
2017-12-24T13:24:59.183Z,101005.63
2017-12-24T13:27:31.700Z,100994.13
2017-12-24T13:30:04.212Z,100991.14
2017-12-24T13:32:36.722Z,100991.19
2017-12-24T13:35:09.336Z,100990.48
2017-12-24T13:37:41.856Z,100991.33
2017-12-24T13:40:14.401Z,100988.16
2017-12-24T13:42:46.912Z,100979.46
2017-12-24T13:45:19.404Z,100982.67
2017-12-24T13:47:51.944Z,100978.70
2017-12-24T13:50:24.434Z,100971.34
2017-12-24T13:52:57.473Z,100988.24
2017-12-24T13:55:30.009Z,100980.99
2017-12-24T13:58:02.506Z,100995.03
2017-12-24T14:00:35.008Z,100973.61
2017-12-24T14:03:07.496Z,100973.20
2017-12-24T14:05:40.005Z,100980.55
2017-12-24T14:08:12.501Z,100967.15
2017-12-24T14:10:45.004Z,100965.72
2017-12-24T14:13:17.493Z,100955.56
2017-12-24T14:15:49.988Z,100960.03
2017-12-24T14:18:22.480Z,100965.14
2017-12-24T14:20:54.983Z,100957.78
2017-12-24T14:23:28.327Z,100952.11
2017-12-24T14:26:00.844Z,100955.36
2017-12-24T14:28:34.183Z,100963.20
2017-12-24T14:31:06.737Z,100953.58
2017-12-24T14:33:40.095Z,100955.95
2017-12-24T14:36:12.616Z,100963.73
2017-12-24T14:38:45.127Z,100955.52
2017-12-24T14:41:17.654Z,100961.41
2017-12-24T14:43:50.134Z,100968.80
2017-12-24T14:46:22.658Z,100946.17
2017-12-24T14:48:55.160Z,100944.44
2017-12-24T14:51:27.780Z,100935.14
2017-12-24T14:54:00.259Z,100939.76
2017-12-24T14:56:33.838Z,100936.81
2017-12-24T14:59:06.392Z,100924.62
2017-12-24T15:01:38.902Z,100936.61
2017-12-24T15:04:11.396Z,100940.20
2017-12-24T15:06:43.949Z,100935.81
2017-12-24T15:09:16.846Z,100928.96
2017-12-24T15:11:49.372Z,100928.32
2017-12-24T15:14:22.258Z,100927.22
2017-12-24T15:16:54.992Z,100914.73
2017-12-24T15:19:27.733Z,100922.64
2017-12-24T15:22:00.358Z,100926.44
2017-12-24T15:24:35.629Z,100931.91
2017-12-24T15:27:09.112Z,100922.45
2017-12-24T15:29:41.742Z,100926.22
2017-12-24T15:32:14.376Z,100915.52
2017-12-24T15:34:47.760Z,100914.87
2017-12-24T15:37:20.271Z,100906.88
2017-12-24T15:39:52.761Z,100905.76
2017-12-24T15:42:25.283Z,100913.65
2017-12-24T15:44:57.763Z,100906.11
2017-12-24T15:47:30.306Z,100904.51
2017-12-24T15:50:02.787Z,100888.66
2017-12-24T15:52:35.291Z,100898.89
2017-12-24T15:55:07.768Z,100896.25
2017-12-24T15:57:40.275Z,100904.41
2017-12-24T16:00:12.817Z,100894.55
2017-12-24T16:02:45.316Z,100890.56
2017-12-24T16:05:18.555Z,100888.88
2017-12-24T16:07:51.134Z,100896.00
2017-12-24T16:10:24.076Z,100906.24
2017-12-24T16:12:57.491Z,100897.62
2017-12-24T16:15:29.978Z,100898.80
2017-12-24T16:18:02.490Z,100899.13
2017-12-24T16:20:34.982Z,100888.83
2017-12-24T16:23:08.089Z,100895.03
2017-12-24T16:25:40.563Z,100900.03
2017-12-24T16:28:13.093Z,100893.70
2017-12-24T16:30:45.593Z,100889.38
2017-12-24T16:33:19.022Z,100895.01
2017-12-24T16:35:51.513Z,100895.75
2017-12-24T16:38:24.017Z,100895.95
2017-12-24T16:40:56.572Z,100900.81
2017-12-24T16:43:29.089Z,100909.43
2017-12-24T16:46:01.596Z,100900.69
2017-12-24T16:48:34.152Z,100904.04
2017-12-24T16:51:06.636Z,100905.47
2017-12-24T16:53:39.142Z,100897.55
2017-12-24T16:56:11.632Z,100894.78
2017-12-24T16:58:44.140Z,100897.95
2017-12-24T17:01:17.615Z,100901.86
2017-12-24T17:03:50.135Z,100893.66
2017-12-24T17:06:22.619Z,100886.69
2017-12-24T17:08:55.136Z,100884.63
2017-12-24T17:11:27.618Z,100898.98
2017-12-24T17:14:00.257Z,100904.21
2017-12-24T17:16:32.761Z,100890.62
2017-12-24T17:19:05.279Z,100891.23
2017-12-24T17:21:38.083Z,100895.27
2017-12-24T17:24:10.588Z,100897.41
2017-12-24T17:26:43.075Z,100888.53
2017-12-24T17:29:19.557Z,100891.98
2017-12-24T17:31:52.073Z,100886.76
2017-12-24T17:34:24.663Z,100884.19
2017-12-24T17:36:57.452Z,100876.33
2017-12-24T17:39:29.969Z,100878.13
2017-12-24T17:42:02.528Z,100888.66
2017-12-24T17:44:35.068Z,100891.02
2017-12-24T17:47:07.609Z,100891.53
2017-12-24T17:49:40.114Z,100881.95
2017-12-24T17:52:12.658Z,100877.43
2017-12-24T17:54:45.122Z,100876.19
2017-12-24T17:57:18.622Z,100880.53
2017-12-24T17:59:51.120Z,100883.63
2017-12-24T18:02:23.635Z,100882.56
2017-12-24T18:04:56.140Z,100886.01
2017-12-24T18:07:28.714Z,100882.16
2017-12-24T18:10:01.225Z,100864.08
2017-12-24T18:12:34.620Z,100878.38
2017-12-24T18:15:07.152Z,100862.39
2017-12-24T18:17:39.666Z,100856.77
2017-12-24T18:20:12.167Z,100872.30
2017-12-24T18:22:44.687Z,100869.80
2017-12-24T18:25:17.645Z,100875.50
2017-12-24T18:27:50.211Z,100868.65
2017-12-24T18:30:22.675Z,100875.33
2017-12-24T18:32:55.177Z,100866.72
2017-12-24T18:35:27.758Z,100854.99
2017-12-24T18:38:00.279Z,100849.47
2017-12-24T18:40:32.771Z,100846.22
2017-12-24T18:43:05.286Z,100854.88
2017-12-24T18:45:37.780Z,100852.83
2017-12-24T18:48:10.291Z,100861.69
2017-12-24T18:50:42.816Z,100848.88
2017-12-24T18:53:15.346Z,100858.52
2017-12-24T18:55:48.525Z,100857.20
2017-12-24T18:58:21.023Z,100863.01
2017-12-24T19:00:53.517Z,100861.61
2017-12-24T19:03:26.023Z,100848.22
2017-12-24T19:05:58.508Z,100853.87
2017-12-24T19:08:31.020Z,100857.39
2017-12-24T19:11:03.552Z,100857.73
2017-12-24T19:13:36.068Z,100856.71
2017-12-24T19:16:08.552Z,100870.30
2017-12-24T19:18:41.054Z,100851.58
2017-12-24T19:21:13.536Z,100855.67
2017-12-24T19:23:46.053Z,100857.08
2017-12-24T19:26:21.260Z,100851.50
2017-12-24T19:28:53.776Z,100851.78
2017-12-24T19:31:27.457Z,100843.91
2017-12-24T19:34:00.012Z,100855.58
2017-12-24T19:36:32.521Z,100846.98
2017-12-24T19:39:05.034Z,100846.08
2017-12-24T19:41:37.540Z,100847.55
2017-12-24T19:44:10.064Z,100853.84
2017-12-24T19:46:43.314Z,100840.59
2017-12-24T19:49:15.863Z,100848.98
2017-12-24T19:51:49.203Z,100843.34
2017-12-24T19:54:21.719Z,100837.76
2017-12-24T19:56:54.221Z,100835.57
2017-12-24T19:59:27.767Z,100843.14
2017-12-24T20:02:00.277Z,100834.65
2017-12-24T20:04:33.052Z,100832.41
2017-12-24T20:07:05.545Z,100847.27
2017-12-24T20:09:38.056Z,100843.64
2017-12-24T20:12:10.624Z,100830.77
2017-12-24T20:14:43.267Z,100833.91
2017-12-24T20:17:15.819Z,100841.19
2017-12-24T20:19:49.084Z,100848.08
2017-12-24T20:25:19.393Z,100851.33
2017-12-24T20:27:52.039Z,100847.76
2017-12-24T20:30:24.560Z,100855.36
2017-12-24T20:32:57.135Z,100848.78
2017-12-24T20:35:30.664Z,100854.66
2017-12-24T20:38:03.441Z,100859.70
2017-12-24T20:40:35.964Z,100850.13
2017-12-24T20:43:08.455Z,100857.30
2017-12-24T20:45:40.959Z,100863.69
2017-12-24T20:48:13.468Z,100872.02
2017-12-24T20:50:45.985Z,100868.30
2017-12-24T20:53:18.887Z,100871.93
2017-12-24T20:55:51.386Z,100879.15
2017-12-24T20:58:23.896Z,100871.30
2017-12-24T21:00:56.402Z,100862.52
2017-12-24T21:03:28.887Z,100870.64
2017-12-24T21:06:01.387Z,100868.59
2017-12-24T21:08:41.509Z,100871.49
2017-12-24T21:11:14.331Z,100873.02
2017-12-24T21:13:47.425Z,100881.06
2017-12-24T21:16:20.109Z,100877.60
2017-12-24T21:18:52.594Z,100882.80
2017-12-24T21:21:25.122Z,100867.59
2017-12-24T21:23:57.627Z,100877.01
2017-12-24T21:26:30.152Z,100883.61
2017-12-24T21:29:02.639Z,100872.89
2017-12-24T21:31:35.942Z,100891.59
2017-12-24T21:34:08.465Z,100885.20
2017-12-24T21:36:41.009Z,100871.23
2017-12-24T21:39:13.506Z,100889.51
2017-12-24T21:41:46.041Z,100891.36
2017-12-24T21:44:18.892Z,100904.81
2017-12-24T21:46:51.416Z,100885.33
2017-12-24T21:49:24.000Z,100882.57
2017-12-24T21:51:56.510Z,100894.78
2017-12-24T21:54:28.995Z,100897.76
2017-12-24T21:57:01.521Z,100888.54
2017-12-24T21:59:34.010Z,100900.17
2017-12-24T22:02:06.524Z,100894.97
2017-12-24T22:04:39.013Z,100890.08
2017-12-24T22:07:11.519Z,100888.72
2017-12-24T22:09:44.014Z,100894.12
2017-12-24T22:12:18.141Z,100899.80
2017-12-24T22:14:50.659Z,100899.48
2017-12-24T22:17:23.197Z,100897.16
2017-12-24T22:19:55.715Z,100894.67
2017-12-24T22:22:28.207Z,100898.49
2017-12-24T22:25:00.686Z,100895.99
2017-12-24T22:27:33.247Z,100903.31
2017-12-24T22:30:09.535Z,100896.88
2017-12-24T22:32:42.406Z,100895.70
2017-12-24T22:35:14.900Z,100896.02
2017-12-24T22:37:47.912Z,100902.97
2017-12-24T22:40:20.436Z,100901.23
2017-12-24T22:42:52.963Z,100893.38
2017-12-24T22:45:25.440Z,100885.02
2017-12-24T22:47:57.938Z,100896.42
2017-12-24T22:50:30.430Z,100886.95
2017-12-24T22:53:04.012Z,100889.86
2017-12-24T22:55:36.511Z,100895.44
2017-12-24T22:58:09.024Z,100889.13
2017-12-24T23:00:41.515Z,100890.50
2017-12-24T23:03:14.040Z,100888.70
2017-12-24T23:05:48.172Z,100888.14
2017-12-24T23:08:20.688Z,100888.94
2017-12-24T23:10:53.229Z,100878.65
2017-12-24T23:13:26.242Z,100893.06
2017-12-24T23:15:58.741Z,100892.97
2017-12-24T23:18:31.320Z,100895.14
2017-12-24T23:21:03.822Z,100884.31
2017-12-24T23:23:36.337Z,100880.78
2017-12-24T23:26:08.827Z,100896.73
2017-12-24T23:28:41.350Z,100896.19
2017-12-24T23:31:14.171Z,100882.23
2017-12-24T23:33:47.458Z,100890.92
2017-12-24T23:36:19.951Z,100872.88
2017-12-24T23:38:53.080Z,100872.96
2017-12-24T23:41:25.588Z,100878.06
2017-12-24T23:43:58.119Z,100869.99
2017-12-24T23:46:30.611Z,100873.77
2017-12-24T23:49:03.119Z,100864.37
2017-12-24T23:51:35.587Z,100858.71
2017-12-24T23:54:08.147Z,100858.91
2017-12-24T23:56:40.681Z,100869.64
2017-12-24T23:59:13.179Z,100873.13
